sensor_id;sensor_type;location;lat;lon;timestamp;pressure;altitude;pressure_sealevel;temperature;humidity
16738;BME280;17906;47.684;10.806;2023-01-10T00:01:54;92851.66;;;-1.02;nan
16738;BME280;17906;47.684;10.806;2023-01-10T00:04:21;92852.13;;;-0.98;nan
16738;BME280;17906;47.684;10.806;2023-01-10T00:06:47;92852.88;;;-1.04;nan
16738;BME280;17906;47.684;10.806;2023-01-10T00:09:14;92850.63;;;-1.01;nan
16738;BME280;17906;47.684;10.806;2023-01-10T00:11:40;92856.53;;;-1.05;nan
16738;BME280;17906;47.684;10.806;2023-01-10T00:14:25;92851.03;;;-0.82;nan
16738;BME280;17906;47.684;10.806;2023-01-10T00:16:54;92866.28;;;-0.91;nan
16738;BME280;17906;47.684;10.806;2023-01-10T00:19:21;92860.72;;;-0.96;nan
16738;BME280;17906;47.684;10.806;2023-01-10T00:21:47;92865.84;;;-0.95;nan
16738;BME280;17906;47.684;10.806;2023-01-10T00:24:14;92865.28;;;-0.90;nan
16738;BME280;17906;47.684;10.806;2023-01-10T00:26:44;92864.25;;;-0.89;nan
16738;BME280;17906;47.684;10.806;2023-01-10T00:29:12;92871.94;;;-0.79;nan
16738;BME280;17906;47.684;10.806;2023-01-10T00:31:39;92876.41;;;-0.87;nan
16738;BME280;17906;47.684;10.806;2023-01-10T00:34:06;92880.69;;;-0.86;nan
16738;BME280;17906;47.684;10.806;2023-01-10T00:36:33;92881.75;;;-0.80;nan
16738;BME280;17906;47.684;10.806;2023-01-10T00:39:00;92884.81;;;-0.83;nan
16738;BME280;17906;47.684;10.806;2023-01-10T00:41:26;92885.00;;;-0.85;nan
16738;BME280;17906;47.684;10.806;2023-01-10T00:44:11;92884.81;;;-0.83;nan
16738;BME280;17906;47.684;10.806;2023-01-10T00:46:37;92886.72;;;-0.77;nan
16738;BME280;17906;47.684;10.806;2023-01-10T00:49:04;92884.91;;;-0.76;nan
16738;BME280;17906;47.684;10.806;2023-01-10T00:51:35;92897.81;;;-0.73;nan
16738;BME280;17906;47.684;10.806;2023-01-10T00:54:01;92897.38;;;-0.77;nan
16738;BME280;17906;47.684;10.806;2023-01-10T00:56:28;92895.97;;;-0.73;nan
16738;BME280;17906;47.684;10.806;2023-01-10T00:58:54;92906.22;;;-0.70;nan
16738;BME280;17906;47.684;10.806;2023-01-10T01:01:21;92901.50;;;-0.74;nan
16738;BME280;17906;47.684;10.806;2023-01-10T01:03:47;92904.34;;;-0.76;nan
16738;BME280;17906;47.684;10.806;2023-01-10T01:06:14;92906.63;;;-0.73;nan
16738;BME280;17906;47.684;10.806;2023-01-10T01:08:42;92901.41;;;-0.81;nan
16738;BME280;17906;47.684;10.806;2023-01-10T01:11:08;92908.84;;;-0.76;nan
16738;BME280;17906;47.684;10.806;2023-01-10T01:13:35;92906.81;;;-0.74;nan
16738;BME280;17906;47.684;10.806;2023-01-10T01:16:02;92918.91;;;-0.72;nan
16738;BME280;17906;47.684;10.806;2023-01-10T01:18:29;92927.47;;;-0.76;nan
16738;BME280;17906;47.684;10.806;2023-01-10T01:20:56;92934.34;;;-0.82;nan
16738;BME280;17906;47.684;10.806;2023-01-10T01:23:25;92935.75;;;-0.86;nan
16738;BME280;17906;47.684;10.806;2023-01-10T01:25:53;92937.59;;;-0.87;nan
16738;BME280;17906;47.684;10.806;2023-01-10T01:28:20;92945.81;;;-0.81;nan
16738;BME280;17906;47.684;10.806;2023-01-10T01:30:47;92958.31;;;-0.82;nan
16738;BME280;17906;47.684;10.806;2023-01-10T01:33:14;92957.91;;;-0.79;nan
16738;BME280;17906;47.684;10.806;2023-01-10T01:35:42;92954.28;;;-0.78;nan
16738;BME280;17906;47.684;10.806;2023-01-10T01:38:08;92962.16;;;-0.85;nan
16738;BME280;17906;47.684;10.806;2023-01-10T01:40:35;92967.94;;;-0.81;nan
16738;BME280;17906;47.684;10.806;2023-01-10T01:43:04;92967.94;;;-0.81;nan
16738;BME280;17906;47.684;10.806;2023-01-10T01:45:35;92974.53;;;-0.77;nan
16738;BME280;17906;47.684;10.806;2023-01-10T01:48:26;92980.22;;;-0.80;nan
16738;BME280;17906;47.684;10.806;2023-01-10T01:50:58;92984.19;;;-0.76;nan
16738;BME280;17906;47.684;10.806;2023-01-10T01:53:33;92986.56;;;-0.81;nan
16738;BME280;17906;47.684;10.806;2023-01-10T01:56:06;92996.38;;;-0.81;nan
16738;BME280;17906;47.684;10.806;2023-01-10T01:58:40;92990.41;;;-0.83;nan
16738;BME280;17906;47.684;10.806;2023-01-10T02:01:09;93004.16;;;-0.80;nan
16738;BME280;17906;47.684;10.806;2023-01-10T02:03:37;93005.66;;;-0.92;nan
16738;BME280;17906;47.684;10.806;2023-01-10T02:06:06;93010.78;;;-0.91;nan
16738;BME280;17906;47.684;10.806;2023-01-10T02:08:33;93013.91;;;-0.87;nan
16738;BME280;17906;47.684;10.806;2023-01-10T02:11:03;93015.91;;;-0.89;nan
16738;BME280;17906;47.684;10.806;2023-01-10T02:13:34;93020.13;;;-0.80;nan
16738;BME280;17906;47.684;10.806;2023-01-10T02:16:05;93024.44;;;-0.79;nan
16738;BME280;17906;47.684;10.806;2023-01-10T02:18:32;93024.09;;;-0.76;nan
16738;BME280;17906;47.684;10.806;2023-01-10T02:27:07;93039.59;;;-0.94;nan
16738;BME280;17906;47.684;10.806;2023-01-10T02:32:42;93044.84;;;-0.86;nan
16738;BME280;17906;47.684;10.806;2023-01-10T02:35:19;93041.78;;;-0.83;nan
16738;BME280;17906;47.684;10.806;2023-01-10T02:37:55;93041.69;;;-0.90;nan
16738;BME280;17906;47.684;10.806;2023-01-10T02:40:32;93047.03;;;-0.90;nan
16738;BME280;17906;47.684;10.806;2023-01-10T02:43:05;93054.72;;;-0.80;nan
16738;BME280;17906;47.684;10.806;2023-01-10T02:45:37;93062.06;;;-0.82;nan
16738;BME280;17906;47.684;10.806;2023-01-10T02:48:07;93065.84;;;-0.76;nan
16738;BME280;17906;47.684;10.806;2023-01-10T02:50:44;93071.16;;;-0.76;nan
16738;BME280;17906;47.684;10.806;2023-01-10T02:53:18;93075.13;;;-0.87;nan
16738;BME280;17906;47.684;10.806;2023-01-10T02:56:12;93067.13;;;-0.87;nan
16738;BME280;17906;47.684;10.806;2023-01-10T03:01:37;93078.41;;;-0.85;nan
16738;BME280;17906;47.684;10.806;2023-01-10T03:04:17;93079.44;;;-0.86;nan
16738;BME280;17906;47.684;10.806;2023-01-10T03:06:53;93087.13;;;-0.76;nan
16738;BME280;17906;47.684;10.806;2023-01-10T03:09:28;93092.91;;;-0.73;nan
16738;BME280;17906;47.684;10.806;2023-01-10T03:12:01;93096.59;;;-0.74;nan
16738;BME280;17906;47.684;10.806;2023-01-10T03:14:33;93105.59;;;-0.75;nan
16738;BME280;17906;47.684;10.806;2023-01-10T03:17:05;93109.31;;;-0.69;nan
16738;BME280;17906;47.684;10.806;2023-01-10T03:19:38;93116.50;;;-0.70;nan
16738;BME280;17906;47.684;10.806;2023-01-10T03:22:09;93109.25;;;-0.76;nan
16738;BME280;17906;47.684;10.806;2023-01-10T03:24:39;93114.66;;;-0.69;nan
16738;BME280;17906;47.684;10.806;2023-01-10T03:27:10;93123.56;;;-0.77;nan
16738;BME280;17906;47.684;10.806;2023-01-10T03:29:42;93119.78;;;-0.82;nan
16738;BME280;17906;47.684;10.806;2023-01-10T03:32:12;93126.31;;;-0.70;nan
16738;BME280;17906;47.684;10.806;2023-01-10T03:34:42;93127.50;;;-0.73;nan
16738;BME280;17906;47.684;10.806;2023-01-10T03:37:12;93134.47;;;-0.72;nan
16738;BME280;17906;47.684;10.806;2023-01-10T03:39:45;93137.13;;;-0.72;nan
16738;BME280;17906;47.684;10.806;2023-01-10T03:42:20;93144.75;;;-0.69;nan
16738;BME280;17906;47.684;10.806;2023-01-10T03:44:53;93149.91;;;-0.67;nan
16738;BME280;17906;47.684;10.806;2023-01-10T03:47:26;93159.91;;;-0.69;nan
16738;BME280;17906;47.684;10.806;2023-01-10T03:49:59;93155.41;;;-0.69;nan
16738;BME280;17906;47.684;10.806;2023-01-10T03:52:28;93160.72;;;-0.69;nan
16738;BME280;17906;47.684;10.806;2023-01-10T03:54:56;93157.53;;;-0.64;nan
16738;BME280;17906;47.684;10.806;2023-01-10T03:57:23;93165.31;;;-0.63;nan
16738;BME280;17906;47.684;10.806;2023-01-10T03:59:52;93171.28;;;-0.61;nan
16738;BME280;17906;47.684;10.806;2023-01-10T04:02:19;93179.00;;;-0.66;nan
16738;BME280;17906;47.684;10.806;2023-01-10T04:04:46;93191.75;;;-0.76;nan
16738;BME280;17906;47.684;10.806;2023-01-10T04:07:14;93188.91;;;-0.74;nan
16738;BME280;17906;47.684;10.806;2023-01-10T04:09:40;93191.38;;;-0.73;nan
16738;BME280;17906;47.684;10.806;2023-01-10T04:12:07;93192.38;;;-0.74;nan
16738;BME280;17906;47.684;10.806;2023-01-10T04:14:33;93186.94;;;-0.80;nan
16738;BME280;17906;47.684;10.806;2023-01-10T04:17:00;93197.56;;;-0.95;nan
16738;BME280;17906;47.684;10.806;2023-01-10T04:19:27;93201.44;;;-0.98;nan
16738;BME280;17906;47.684;10.806;2023-01-10T04:21:53;93206.81;;;-1.06;nan
16738;BME280;17906;47.684;10.806;2023-01-10T04:24:21;93208.19;;;-1.10;nan
16738;BME280;17906;47.684;10.806;2023-01-10T04:26:48;93209.72;;;-1.16;nan
16738;BME280;17906;47.684;10.806;2023-01-10T04:29:15;93220.06;;;-1.21;nan
16738;BME280;17906;47.684;10.806;2023-01-10T04:31:41;93214.09;;;-1.23;nan
16738;BME280;17906;47.684;10.806;2023-01-10T04:34:08;93226.69;;;-1.17;nan
16738;BME280;17906;47.684;10.806;2023-01-10T04:36:35;93224.66;;;-1.15;nan
16738;BME280;17906;47.684;10.806;2023-01-10T04:39:02;93239.78;;;-1.15;nan
16738;BME280;17906;47.684;10.806;2023-01-10T04:41:30;93232.41;;;-1.05;nan
16738;BME280;17906;47.684;10.806;2023-01-10T04:43:56;93243.22;;;-1.06;nan
16738;BME280;17906;47.684;10.806;2023-01-10T04:46:23;93248.38;;;-1.05;nan
16738;BME280;17906;47.684;10.806;2023-01-10T04:48:50;93249.25;;;-1.13;nan
16738;BME280;17906;47.684;10.806;2023-01-10T04:51:16;93254.22;;;-1.09;nan
16738;BME280;17906;47.684;10.806;2023-01-10T04:53:43;93267.81;;;-1.04;nan
16738;BME280;17906;47.684;10.806;2023-01-10T04:56:17;93276.44;;;-1.02;nan
16738;BME280;17906;47.684;10.806;2023-01-10T04:58:46;93291.94;;;-1.06;nan
16738;BME280;17906;47.684;10.806;2023-01-10T05:01:15;93290.31;;;-1.15;nan
16738;BME280;17906;47.684;10.806;2023-01-10T05:03:42;93306.75;;;-1.11;nan
16738;BME280;17906;47.684;10.806;2023-01-10T05:06:09;93300.78;;;-1.14;nan
16738;BME280;17906;47.684;10.806;2023-01-10T05:08:36;93312.75;;;-1.09;nan
16738;BME280;17906;47.684;10.806;2023-01-10T05:11:03;93310.41;;;-1.13;nan
16738;BME280;17906;47.684;10.806;2023-01-10T05:13:31;93314.63;;;-1.18;nan
16738;BME280;17906;47.684;10.806;2023-01-10T05:15:59;93328.09;;;-1.20;nan
16738;BME280;17906;47.684;10.806;2023-01-10T05:18:27;93326.44;;;-1.21;nan
16738;BME280;17906;47.684;10.806;2023-01-10T05:20:58;93330.09;;;-1.22;nan
16738;BME280;17906;47.684;10.806;2023-01-10T05:23:25;93339.44;;;-1.26;nan
16738;BME280;17906;47.684;10.806;2023-01-10T05:25:51;93336.59;;;-1.24;nan
16738;BME280;17906;47.684;10.806;2023-01-10T05:28:19;93339.78;;;-1.29;nan
16738;BME280;17906;47.684;10.806;2023-01-10T05:30:45;93355.28;;;-1.32;nan
16738;BME280;17906;47.684;10.806;2023-01-10T05:33:13;93353.56;;;-1.25;nan
16738;BME280;17906;47.684;10.806;2023-01-10T05:35:40;93366.84;;;-1.25;nan
16738;BME280;17906;47.684;10.806;2023-01-10T05:38:06;93356.75;;;-1.30;nan
16738;BME280;17906;47.684;10.806;2023-01-10T05:40:33;93358.03;;;-1.26;nan
16738;BME280;17906;47.684;10.806;2023-01-10T05:42:59;93360.84;;;-1.19;nan
16738;BME280;17906;47.684;10.806;2023-01-10T05:45:26;93366.28;;;-1.13;nan
16738;BME280;17906;47.684;10.806;2023-01-10T05:47:53;93376.59;;;-1.09;nan
16738;BME280;17906;47.684;10.806;2023-01-10T05:50:21;93384.97;;;-1.21;nan
16738;BME280;17906;47.684;10.806;2023-01-10T05:52:47;93388.75;;;-1.15;nan
16738;BME280;17906;47.684;10.806;2023-01-10T05:55:14;93395.72;;;-1.14;nan
16738;BME280;17906;47.684;10.806;2023-01-10T05:57:40;93408.34;;;-1.08;nan
16738;BME280;17906;47.684;10.806;2023-01-10T06:00:08;93406.84;;;-1.10;nan
16738;BME280;17906;47.684;10.806;2023-01-10T06:02:35;93424.97;;;-1.14;nan
16738;BME280;17906;47.684;10.806;2023-01-10T06:05:01;93422.00;;;-1.19;nan
16738;BME280;17906;47.684;10.806;2023-01-10T06:07:29;93429.47;;;-1.23;nan
16738;BME280;17906;47.684;10.806;2023-01-10T06:09:56;93429.84;;;-1.26;nan
16738;BME280;17906;47.684;10.806;2023-01-10T06:12:23;93435.31;;;-1.19;nan
16738;BME280;17906;47.684;10.806;2023-01-10T06:14:49;93441.00;;;-1.30;nan
16738;BME280;17906;47.684;10.806;2023-01-10T06:17:15;93440.63;;;-1.19;nan
16738;BME280;17906;47.684;10.806;2023-01-10T06:19:42;93453.41;;;-1.23;nan
16738;BME280;17906;47.684;10.806;2023-01-10T06:22:09;93462.56;;;-1.25;nan
16738;BME280;17906;47.684;10.806;2023-01-10T06:24:36;93468.06;;;-1.19;nan
16738;BME280;17906;47.684;10.806;2023-01-10T06:27:03;93473.88;;;-1.23;nan
16738;BME280;17906;47.684;10.806;2023-01-10T06:29:30;93469.88;;;-1.19;nan
16738;BME280;17906;47.684;10.806;2023-01-10T06:31:57;93487.50;;;-1.18;nan
16738;BME280;17906;47.684;10.806;2023-01-10T06:34:24;93476.03;;;-1.19;nan
16738;BME280;17906;47.684;10.806;2023-01-10T06:36:51;93485.66;;;-1.09;nan
16738;BME280;17906;47.684;10.806;2023-01-10T06:39:17;93490.47;;;-1.13;nan
16738;BME280;17906;47.684;10.806;2023-01-10T06:41:45;93498.50;;;-1.21;nan
16738;BME280;17906;47.684;10.806;2023-01-10T06:44:12;93503.13;;;-1.23;nan
16738;BME280;17906;47.684;10.806;2023-01-10T06:46:38;93510.28;;;-1.24;nan
16738;BME280;17906;47.684;10.806;2023-01-10T06:49:05;93522.91;;;-1.26;nan
16738;BME280;17906;47.684;10.806;2023-01-10T06:51:31;93528.88;;;-1.24;nan
16738;BME280;17906;47.684;10.806;2023-01-10T06:53:58;93543.84;;;-1.15;nan
16738;BME280;17906;47.684;10.806;2023-01-10T06:56:24;93539.03;;;-1.27;nan
16738;BME280;17906;47.684;10.806;2023-01-10T06:58:52;93549.50;;;-1.26;nan
16738;BME280;17906;47.684;10.806;2023-01-10T07:01:20;93553.00;;;-1.17;nan
16738;BME280;17906;47.684;10.806;2023-01-10T07:03:47;93555.16;;;-1.21;nan
16738;BME280;17906;47.684;10.806;2023-01-10T07:06:14;93570.59;;;-1.16;nan
16738;BME280;17906;47.684;10.806;2023-01-10T07:08:41;93570.44;;;-1.15;nan
16738;BME280;17906;47.684;10.806;2023-01-10T07:11:10;93583.41;;;-1.20;nan
16738;BME280;17906;47.684;10.806;2023-01-10T07:13:37;93587.91;;;-1.20;nan
16738;BME280;17906;47.684;10.806;2023-01-10T07:16:07;93586.56;;;-1.16;nan
16738;BME280;17906;47.684;10.806;2023-01-10T07:18:35;93591.56;;;-1.21;nan
16738;BME280;17906;47.684;10.806;2023-01-10T07:21:03;93602.22;;;-1.21;nan
16738;BME280;17906;47.684;10.806;2023-01-10T07:23:30;93611.03;;;-1.21;nan
16738;BME280;17906;47.684;10.806;2023-01-10T07:25:57;93609.19;;;-1.28;nan
16738;BME280;17906;47.684;10.806;2023-01-10T07:28:24;93621.78;;;-1.22;nan
16738;BME280;17906;47.684;10.806;2023-01-10T07:30:50;93624.81;;;-1.25;nan
16738;BME280;17906;47.684;10.806;2023-01-10T07:33:18;93629.81;;;-1.30;nan
16738;BME280;17906;47.684;10.806;2023-01-10T07:35:45;93627.31;;;-1.32;nan
16738;BME280;17906;47.684;10.806;2023-01-10T07:38:11;93631.63;;;-1.31;nan
16738;BME280;17906;47.684;10.806;2023-01-10T07:40:38;93633.13;;;-1.28;nan
16738;BME280;17906;47.684;10.806;2023-01-10T07:43:04;93639.44;;;-1.29;nan
16738;BME280;17906;47.684;10.806;2023-01-10T07:45:31;93657.88;;;-1.28;nan
16738;BME280;17906;47.684;10.806;2023-01-10T07:47:58;93648.75;;;-1.25;nan
16738;BME280;17906;47.684;10.806;2023-01-10T07:50:28;93669.53;;;-1.29;nan
16738;BME280;17906;47.684;10.806;2023-01-10T07:52:55;93663.53;;;-1.31;nan
16738;BME280;17906;47.684;10.806;2023-01-10T07:55:22;93666.53;;;-1.18;nan
16738;BME280;17906;47.684;10.806;2023-01-10T07:57:48;93661.03;;;-1.24;nan
16738;BME280;17906;47.684;10.806;2023-01-10T08:00:16;93680.16;;;-1.29;nan
16738;BME280;17906;47.684;10.806;2023-01-10T08:02:43;93667.34;;;-1.33;nan
16738;BME280;17906;47.684;10.806;2023-01-10T08:05:10;93675.50;;;-1.35;nan
16738;BME280;17906;47.684;10.806;2023-01-10T08:07:38;93685.00;;;-1.32;nan
16738;BME280;17906;47.684;10.806;2023-01-10T08:10:06;93691.13;;;-1.24;nan
16738;BME280;17906;47.684;10.806;2023-01-10T08:12:32;93687.78;;;-1.26;nan
16738;BME280;17906;47.684;10.806;2023-01-10T08:14:59;93689.78;;;-1.28;nan
16738;BME280;17906;47.684;10.806;2023-01-10T08:17:26;93701.75;;;-1.24;nan
16738;BME280;17906;47.684;10.806;2023-01-10T08:19:53;93701.28;;;-1.19;nan
16738;BME280;17906;47.684;10.806;2023-01-10T08:22:19;93705.75;;;-1.20;nan
16738;BME280;17906;47.684;10.806;2023-01-10T08:24:47;93713.22;;;-1.15;nan
16738;BME280;17906;47.684;10.806;2023-01-10T08:27:14;93718.22;;;-1.12;nan
16738;BME280;17906;47.684;10.806;2023-01-10T08:29:40;93720.72;;;-1.10;nan
16738;BME280;17906;47.684;10.806;2023-01-10T08:32:07;93735.69;;;-1.09;nan
16738;BME280;17906;47.684;10.806;2023-01-10T08:34:34;93739.84;;;-1.15;nan
16738;BME280;17906;47.684;10.806;2023-01-10T08:37:00;93731.84;;;-1.15;nan
16738;BME280;17906;47.684;10.806;2023-01-10T08:39:28;93716.38;;;-1.11;nan
16738;BME280;17906;47.684;10.806;2023-01-10T08:41:56;93735.34;;;-1.06;nan
16738;BME280;17906;47.684;10.806;2023-01-10T08:44:23;93732.03;;;-1.08;nan
16738;BME280;17906;47.684;10.806;2023-01-10T08:46:50;93743.00;;;-1.03;nan
16738;BME280;17906;47.684;10.806;2023-01-10T08:49:17;93749.47;;;-1.06;nan
16738;BME280;17906;47.684;10.806;2023-01-10T08:51:43;93764.28;;;-1.03;nan
16738;BME280;17906;47.684;10.806;2023-01-10T08:54:10;93762.28;;;-1.01;nan
16738;BME280;17906;47.684;10.806;2023-01-10T08:56:37;93773.25;;;-1.04;nan
16738;BME280;17906;47.684;10.806;2023-01-10T08:59:07;93768.44;;;-1.01;nan
16738;BME280;17906;47.684;10.806;2023-01-10T09:01:34;93767.63;;;-0.93;nan
16738;BME280;17906;47.684;10.806;2023-01-10T09:04:01;93768.28;;;-0.91;nan
16738;BME280;17906;47.684;10.806;2023-01-10T09:06:27;93764.28;;;-0.95;nan
16738;BME280;17906;47.684;10.806;2023-01-10T09:08:54;93759.97;;;-0.88;nan
16738;BME280;17906;47.684;10.806;2023-01-10T09:11:20;93770.28;;;-0.85;nan
16738;BME280;17906;47.684;10.806;2023-01-10T09:13:48;93782.59;;;-0.84;nan
16738;BME280;17906;47.684;10.806;2023-01-10T09:16:16;93787.41;;;-0.79;nan
16738;BME280;17906;47.684;10.806;2023-01-10T09:18:42;93779.75;;;-0.74;nan
16738;BME280;17906;47.684;10.806;2023-01-10T09:21:09;93786.91;;;-0.83;nan
16738;BME280;17906;47.684;10.806;2023-01-10T09:23:36;93796.75;;;-0.75;nan
16738;BME280;17906;47.684;10.806;2023-01-10T09:26:04;93794.56;;;-0.72;nan
16738;BME280;17906;47.684;10.806;2023-01-10T09:28:30;93806.22;;;-0.73;nan
16738;BME280;17906;47.684;10.806;2023-01-10T09:30:57;93806.22;;;-0.65;nan
16738;BME280;17906;47.684;10.806;2023-01-10T09:33:26;93812.19;;;-0.63;nan
16738;BME280;17906;47.684;10.806;2023-01-10T09:35:56;93800.38;;;-0.52;nan
16738;BME280;17906;47.684;10.806;2023-01-10T09:38:23;93806.88;;;-0.54;nan
16738;BME280;17906;47.684;10.806;2023-01-10T09:40:59;93814.19;;;-0.40;nan
16738;BME280;17906;47.684;10.806;2023-01-10T09:43:31;93807.69;;;-0.38;nan
16738;BME280;17906;47.684;10.806;2023-01-10T09:46:05;93812.00;;;-0.37;nan
16738;BME280;17906;47.684;10.806;2023-01-10T09:48:37;93819.50;;;-0.40;nan
16738;BME280;17906;47.684;10.806;2023-01-10T09:51:20;93825.16;;;-0.35;nan
16738;BME280;17906;47.684;10.806;2023-01-10T09:53:53;93830.81;;;-0.38;nan
16738;BME280;17906;47.684;10.806;2023-01-10T09:56:20;93821.19;;;-0.39;nan
16738;BME280;17906;47.684;10.806;2023-01-10T09:58:47;93819.50;;;-0.40;nan
16738;BME280;17906;47.684;10.806;2023-01-10T10:01:17;93821.50;;;-0.26;nan
16738;BME280;17906;47.684;10.806;2023-01-10T10:03:51;93818.81;;;-0.18;nan
16738;BME280;17906;47.684;10.806;2023-01-10T10:06:21;93820.81;;;-0.20;nan
16738;BME280;17906;47.684;10.806;2023-01-10T10:08:49;93813.31;;;-0.24;nan
16738;BME280;17906;47.684;10.806;2023-01-10T10:11:31;93803.34;;;-0.22;nan
16738;BME280;17906;47.684;10.806;2023-01-10T10:14:02;93820.47;;;-0.17;nan
16738;BME280;17906;47.684;10.806;2023-01-10T10:16:36;93820.47;;;-0.09;nan
16738;BME280;17906;47.684;10.806;2023-01-10T10:19:17;93817.28;;;0.04;nan
16738;BME280;17906;47.684;10.806;2023-01-10T10:21:52;93815.97;;;-0.00;nan
16738;BME280;17906;47.684;10.806;2023-01-10T10:24:52;93793.63;;;0.09;nan
16738;BME280;17906;47.684;10.806;2023-01-10T10:27:34;93802.72;;;0.31;nan
16738;BME280;17906;47.684;10.806;2023-01-10T10:30:28;93810.28;;;0.50;nan
16738;BME280;17906;47.684;10.806;2023-01-10T10:33:04;93806.47;;;0.53;nan
16738;BME280;17906;47.684;10.806;2023-01-10T10:35:35;93827.25;;;0.57;nan
16738;BME280;17906;47.684;10.806;2023-01-10T10:38:09;93820.09;;;0.58;nan
16738;BME280;17906;47.684;10.806;2023-01-10T10:40:40;93816.16;;;0.38;nan
16738;BME280;17906;47.684;10.806;2023-01-10T10:43:14;93821.16;;;0.41;nan
16738;BME280;17906;47.684;10.806;2023-01-10T10:45:47;93826.19;;;0.36;nan
16738;BME280;17906;47.684;10.806;2023-01-10T10:48:19;93818.53;;;0.33;nan
16738;BME280;17906;47.684;10.806;2023-01-10T10:50:54;93814.72;;;0.27;nan
16738;BME280;17906;47.684;10.806;2023-01-10T10:53:24;93813.91;;;0.18;nan
16738;BME280;17906;47.684;10.806;2023-01-10T10:55:51;93825.56;;;0.25;nan
16738;BME280;17906;47.684;10.806;2023-01-10T10:58:18;93818.03;;;0.29;nan
16738;BME280;17906;47.684;10.806;2023-01-10T11:00:45;93829.75;;;0.20;nan
16738;BME280;17906;47.684;10.806;2023-01-10T11:03:24;93822.41;;;0.22;nan
16738;BME280;17906;47.684;10.806;2023-01-10T11:05:53;93828.03;;;0.35;nan
16738;BME280;17906;47.684;10.806;2023-01-10T11:08:20;93826.81;;;0.46;nan
16738;BME280;17906;47.684;10.806;2023-01-10T11:10:51;93827.44;;;0.56;nan
16738;BME280;17906;47.684;10.806;2023-01-10T11:13:24;93831.25;;;0.61;nan
16738;BME280;17906;47.684;10.806;2023-01-10T11:15:52;93829.75;;;0.59;nan
16738;BME280;17906;47.684;10.806;2023-01-10T11:18:21;93829.31;;;0.47;nan
16738;BME280;17906;47.684;10.806;2023-01-10T11:20:50;93829.13;;;0.49;nan
16738;BME280;17906;47.684;10.806;2023-01-10T11:23:36;93832.41;;;0.67;nan
16738;BME280;17906;47.684;10.806;2023-01-10T11:26:07;93837.91;;;0.66;nan
16738;BME280;17906;47.684;10.806;2023-01-10T11:28:35;93827.44;;;0.56;nan
16738;BME280;17906;47.684;10.806;2023-01-10T11:31:02;93823.59;;;0.58;nan
16738;BME280;17906;47.684;10.806;2023-01-10T11:33:30;93831.78;;;0.57;nan
16738;BME280;17906;47.684;10.806;2023-01-10T11:36:02;93830.09;;;0.64;nan
16738;BME280;17906;47.684;10.806;2023-01-10T11:38:31;93833.97;;;0.53;nan
16738;BME280;17906;47.684;10.806;2023-01-10T11:41:00;93832.41;;;0.59;nan
16738;BME280;17906;47.684;10.806;2023-01-10T11:43:30;93831.78;;;0.57;nan
16738;BME280;17906;47.684;10.806;2023-01-10T11:45:59;93829.06;;;0.65;nan
16738;BME280;17906;47.684;10.806;2023-01-10T11:48:38;93821.28;;;0.55;nan
16738;BME280;17906;47.684;10.806;2023-01-10T11:51:15;93819.06;;;0.67;nan
16738;BME280;17906;47.684;10.806;2023-01-10T11:53:44;93817.88;;;0.70;nan
16738;BME280;17906;47.684;10.806;2023-01-10T11:56:13;93815.84;;;0.72;nan
16738;BME280;17906;47.684;10.806;2023-01-10T11:58:48;93819.47;;;0.87;nan
16738;BME280;17906;47.684;10.806;2023-01-10T12:01:30;93804.25;;;0.96;nan
16738;BME280;17906;47.684;10.806;2023-01-10T12:04:00;93811.16;;;1.05;nan
16738;BME280;17906;47.684;10.806;2023-01-10T12:06:27;93812.13;;;1.12;nan
16738;BME280;17906;47.684;10.806;2023-01-10T12:08:55;93794.09;;;1.14;nan
16738;BME280;17906;47.684;10.806;2023-01-10T12:11:26;93796.56;;;1.15;nan
16738;BME280;17906;47.684;10.806;2023-01-10T12:13:55;93795.97;;;1.05;nan
16738;BME280;17906;47.684;10.806;2023-01-10T12:16:24;93787.13;;;1.05;nan
16738;BME280;17906;47.684;10.806;2023-01-10T12:18:53;93790.75;;;1.12;nan
16738;BME280;17906;47.684;10.806;2023-01-10T12:21:28;93792.97;;;1.08;nan
16738;BME280;17906;47.684;10.806;2023-01-10T12:24:01;93793.63;;;1.10;nan
16738;BME280;17906;47.684;10.806;2023-01-10T12:26:31;93797.41;;;1.16;nan
16738;BME280;17906;47.684;10.806;2023-01-10T12:29:03;93792.66;;;1.03;nan
16738;BME280;17906;47.684;10.806;2023-01-10T12:31:32;93796.81;;;1.06;nan
16738;BME280;17906;47.684;10.806;2023-01-10T12:34:04;93794.22;;;1.21;nan
16738;BME280;17906;47.684;10.806;2023-01-10T12:36:38;93795.16;;;1.28;nan
16738;BME280;17906;47.684;10.806;2023-01-10T12:39:13;93790.75;;;1.35;nan
16738;BME280;17906;47.684;10.806;2023-01-10T12:42:03;93806.41;;;1.38;nan
16738;BME280;17906;47.684;10.806;2023-01-10T12:44:59;93787.72;;;1.38;nan
16738;BME280;17906;47.684;10.806;2023-01-10T12:47:32;93792.25;;;1.37;nan
16738;BME280;17906;47.684;10.806;2023-01-10T12:50:04;93805.06;;;1.42;nan
16738;BME280;17906;47.684;10.806;2023-01-10T12:52:38;93794.72;;;1.39;nan
16738;BME280;17906;47.684;10.806;2023-01-10T12:55:13;93804.03;;;1.28;nan
16738;BME280;17906;47.684;10.806;2023-01-10T12:57:41;93803.06;;;1.21;nan
16738;BME280;17906;47.684;10.806;2023-01-10T13:00:17;93801.03;;;1.23;nan
16738;BME280;17906;47.684;10.806;2023-01-10T13:02:46;93809.50;;;1.27;nan
16738;BME280;17906;47.684;10.806;2023-01-10T13:05:18;93805.00;;;1.27;nan
16738;BME280;17906;47.684;10.806;2023-01-10T13:07:46;93815.09;;;1.17;nan
16738;BME280;17906;47.684;10.806;2023-01-10T13:10:17;93807.84;;;1.26;nan
16738;BME280;17906;47.684;10.806;2023-01-10T13:12:50;93809.69;;;1.25;nan
16738;BME280;17906;47.684;10.806;2023-01-10T13:15:22;93814.63;;;1.13;nan
16738;BME280;17906;47.684;10.806;2023-01-10T13:17:53;93821.16;;;1.11;nan
16738;BME280;17906;47.684;10.806;2023-01-10T13:20:26;93816.03;;;1.01;nan
16738;BME280;17906;47.684;10.806;2023-01-10T13:22:54;93813.19;;;1.03;nan
16738;BME280;17906;47.684;10.806;2023-01-10T13:25:24;93815.38;;;0.99;nan
16738;BME280;17906;47.684;10.806;2023-01-10T13:27:55;93821.22;;;0.95;nan
16738;BME280;17906;47.684;10.806;2023-01-10T13:30:28;93828.59;;;0.93;nan
16738;BME280;17906;47.684;10.806;2023-01-10T13:33:00;93826.97;;;0.83;nan
16738;BME280;17906;47.684;10.806;2023-01-10T13:35:36;93826.22;;;0.67;nan
16738;BME280;17906;47.684;10.806;2023-01-10T13:38:05;93822.91;;;0.65;nan